sensor_id;sensor_type;location;lat;lon;timestamp;P1;durP1;ratioP1;P2;durP2;ratioP2
12407;SDS011;6268;48.188;17.134;2023-01-15T00:02:22;14.27;;;12.98;;
12407;SDS011;6268;48.188;17.134;2023-01-15T00:04:52;14.57;;;13.18;;
12407;SDS011;6268;48.188;17.134;2023-01-15T00:07:21;18.27;;;16.58;;
12407;SDS011;6268;48.188;17.134;2023-01-15T00:09:50;20.38;;;18.27;;
12407;SDS011;6268;48.188;17.134;2023-01-15T00:12:19;19.77;;;17.88;;
12407;SDS011;6268;48.188;17.134;2023-01-15T00:14:48;16.10;;;14.57;;
12407;SDS011;6268;48.188;17.134;2023-01-15T00:17:17;19.00;;;17.23;;
12407;SDS011;6268;48.188;17.134;2023-01-15T00:19:46;20.83;;;18.80;;
12407;SDS011;6268;48.188;17.134;2023-01-15T00:22:16;17.02;;;15.40;;
12407;SDS011;6268;48.188;17.134;2023-01-15T00:24:45;16.08;;;14.57;;
12407;SDS011;6268;48.188;17.134;2023-01-15T00:27:31;16.90;;;15.15;;
12407;SDS011;6268;48.188;17.134;2023-01-15T00:30:06;16.73;;;14.93;;
12407;SDS011;6268;48.188;17.134;2023-01-15T00:32:38;16.77;;;15.18;;
12407;SDS011;6268;48.188;17.134;2023-01-15T00:35:09;16.38;;;14.80;;
12407;SDS011;6268;48.188;17.134;2023-01-15T00:37:42;15.77;;;14.17;;
12407;SDS011;6268;48.188;17.134;2023-01-15T00:40:11;16.75;;;14.98;;
12407;SDS011;6268;48.188;17.134;2023-01-15T00:42:42;16.10;;;14.50;;
12407;SDS011;6268;48.188;17.134;2023-01-15T00:45:20;17.03;;;15.43;;
12407;SDS011;6268;48.188;17.134;2023-01-15T00:47:49;16.30;;;14.73;;
12407;SDS011;6268;48.188;17.134;2023-01-15T00:50:18;16.83;;;15.13;;
12407;SDS011;6268;48.188;17.134;2023-01-15T00:52:49;16.23;;;13.90;;
12407;SDS011;6268;48.188;17.134;2023-01-15T00:55:18;16.40;;;14.70;;
12407;SDS011;6268;48.188;17.134;2023-01-15T00:57:46;16.90;;;14.93;;
12407;SDS011;6268;48.188;17.134;2023-01-15T01:00:15;18.07;;;16.17;;
12407;SDS011;6268;48.188;17.134;2023-01-15T01:02:45;16.80;;;15.00;;
12407;SDS011;6268;48.188;17.134;2023-01-15T01:05:14;16.63;;;14.93;;
12407;SDS011;6268;48.188;17.134;2023-01-15T01:07:42;17.33;;;15.27;;
12407;SDS011;6268;48.188;17.134;2023-01-15T01:12:43;17.70;;;15.60;;
12407;SDS011;6268;48.188;17.134;2023-01-15T01:15:14;16.93;;;15.20;;
12407;SDS011;6268;48.188;17.134;2023-01-15T01:17:42;16.87;;;15.17;;
12407;SDS011;6268;48.188;17.134;2023-01-15T01:20:12;16.67;;;14.87;;
12407;SDS011;6268;48.188;17.134;2023-01-15T01:22:43;17.70;;;14.17;;
12407;SDS011;6268;48.188;17.134;2023-01-15T01:25:17;15.47;;;13.80;;
12407;SDS011;6268;48.188;17.134;2023-01-15T01:27:46;17.20;;;14.40;;
12407;SDS011;6268;48.188;17.134;2023-01-15T01:30:15;15.43;;;13.87;;
12407;SDS011;6268;48.188;17.134;2023-01-15T01:32:45;16.53;;;14.20;;
12407;SDS011;6268;48.188;17.134;2023-01-15T01:35:13;14.67;;;13.20;;
12407;SDS011;6268;48.188;17.134;2023-01-15T01:37:43;14.77;;;13.27;;
12407;SDS011;6268;48.188;17.134;2023-01-15T01:40:18;16.13;;;14.53;;
12407;SDS011;6268;48.188;17.134;2023-01-15T01:42:47;14.97;;;13.40;;
12407;SDS011;6268;48.188;17.134;2023-01-15T01:45:18;16.03;;;13.30;;
12407;SDS011;6268;48.188;17.134;2023-01-15T01:47:54;15.20;;;13.60;;
12407;SDS011;6268;48.188;17.134;2023-01-15T01:50:29;15.40;;;13.73;;
12407;SDS011;6268;48.188;17.134;2023-01-15T01:53:02;14.80;;;13.20;;
12407;SDS011;6268;48.188;17.134;2023-01-15T01:55:36;13.73;;;12.40;;
12407;SDS011;6268;48.188;17.134;2023-01-15T01:58:06;14.13;;;12.73;;
12407;SDS011;6268;48.188;17.134;2023-01-15T02:00:39;13.47;;;12.17;;
12407;SDS011;6268;48.188;17.134;2023-01-15T02:03:14;14.23;;;12.80;;
12407;SDS011;6268;48.188;17.134;2023-01-15T02:05:48;14.50;;;12.47;;
12407;SDS011;6268;48.188;17.134;2023-01-15T02:08:21;13.00;;;11.80;;
12407;SDS011;6268;48.188;17.134;2023-01-15T02:10:53;12.80;;;11.60;;
12407;SDS011;6268;48.188;17.134;2023-01-15T02:13:24;12.43;;;11.17;;
12407;SDS011;6268;48.188;17.134;2023-01-15T02:16:02;13.63;;;11.90;;
12407;SDS011;6268;48.188;17.134;2023-01-15T02:18:42;12.47;;;11.27;;
12407;SDS011;6268;48.188;17.134;2023-01-15T02:21:20;12.67;;;11.30;;
12407;SDS011;6268;48.188;17.134;2023-01-15T02:24:08;12.10;;;10.90;;
12407;SDS011;6268;48.188;17.134;2023-01-15T02:29:51;10.87;;;9.77;;
12407;SDS011;6268;48.188;17.134;2023-01-15T02:32:30;11.83;;;10.60;;
12407;SDS011;6268;48.188;17.134;2023-01-15T02:35:09;10.83;;;9.80;;
12407;SDS011;6268;48.188;17.134;2023-01-15T02:37:50;11.00;;;9.90;;
12407;SDS011;6268;48.188;17.134;2023-01-15T02:40:23;10.37;;;9.37;;
12407;SDS011;6268;48.188;17.134;2023-01-15T02:42:56;10.87;;;9.67;;
12407;SDS011;6268;48.188;17.134;2023-01-15T02:45:27;10.37;;;9.40;;
12407;SDS011;6268;48.188;17.134;2023-01-15T02:48:02;10.30;;;9.20;;
12407;SDS011;6268;48.188;17.134;2023-01-15T02:50:39;13.03;;;11.63;;
12407;SDS011;6268;48.188;17.134;2023-01-15T02:53:13;11.17;;;9.93;;
12407;SDS011;6268;48.188;17.134;2023-01-15T02:55:49;13.33;;;11.90;;
12407;SDS011;6268;48.188;17.134;2023-01-15T02:58:26;10.37;;;9.00;;
12407;SDS011;6268;48.188;17.134;2023-01-15T03:01:00;9.73;;;8.73;;
12407;SDS011;6268;48.188;17.134;2023-01-15T03:03:37;9.97;;;8.43;;
12407;SDS011;6268;48.188;17.134;2023-01-15T03:06:15;10.63;;;9.23;;
12407;SDS011;6268;48.188;17.134;2023-01-15T03:08:54;10.70;;;9.60;;
12407;SDS011;6268;48.188;17.134;2023-01-15T03:11:23;9.10;;;8.23;;
12407;SDS011;6268;48.188;17.134;2023-01-15T03:13:55;10.70;;;9.47;;
12407;SDS011;6268;48.188;17.134;2023-01-15T03:16:32;12.67;;;11.17;;
12407;SDS011;6268;48.188;17.134;2023-01-15T03:19:05;8.80;;;8.00;;
12407;SDS011;6268;48.188;17.134;2023-01-15T03:21:47;8.67;;;7.87;;
12407;SDS011;6268;48.188;17.134;2023-01-15T03:24:24;11.23;;;9.23;;
12407;SDS011;6268;48.188;17.134;2023-01-15T03:26:59;11.20;;;8.90;;
12407;SDS011;6268;48.188;17.134;2023-01-15T03:29:31;10.47;;;8.67;;
12407;SDS011;6268;48.188;17.134;2023-01-15T03:32:05;10.20;;;9.20;;
12407;SDS011;6268;48.188;17.134;2023-01-15T03:34:35;14.97;;;12.73;;
12407;SDS011;6268;48.188;17.134;2023-01-15T03:37:13;9.80;;;8.90;;
12407;SDS011;6268;48.188;17.134;2023-01-15T03:39:42;11.17;;;8.93;;
12407;SDS011;6268;48.188;17.134;2023-01-15T03:42:14;9.80;;;8.90;;
12407;SDS011;6268;48.188;17.134;2023-01-15T03:44:59;9.20;;;8.33;;
12407;SDS011;6268;48.188;17.134;2023-01-15T03:47:39;10.27;;;9.17;;
12407;SDS011;6268;48.188;17.134;2023-01-15T03:50:21;10.00;;;8.50;;
12407;SDS011;6268;48.188;17.134;2023-01-15T03:52:59;10.13;;;8.37;;
12407;SDS011;6268;48.188;17.134;2023-01-15T03:55:38;9.80;;;8.80;;
12407;SDS011;6268;48.188;17.134;2023-01-15T03:58:20;9.73;;;8.50;;
12407;SDS011;6268;48.188;17.134;2023-01-15T04:00:58;9.70;;;8.73;;
12407;SDS011;6268;48.188;17.134;2023-01-15T04:03:31;9.47;;;8.47;;
12407;SDS011;6268;48.188;17.134;2023-01-15T04:06:01;10.30;;;8.70;;
12407;SDS011;6268;48.188;17.134;2023-01-15T04:08:39;9.53;;;8.63;;
12407;SDS011;6268;48.188;17.134;2023-01-15T04:11:11;8.93;;;8.13;;
12407;SDS011;6268;48.188;17.134;2023-01-15T04:13:40;9.90;;;8.87;;
12407;SDS011;6268;48.188;17.134;2023-01-15T04:16:11;12.23;;;9.23;;
12407;SDS011;6268;48.188;17.134;2023-01-15T04:18:40;9.73;;;8.73;;
12407;SDS011;6268;48.188;17.134;2023-01-15T04:21:09;9.33;;;8.30;;
12407;SDS011;6268;48.188;17.134;2023-01-15T04:23:37;9.80;;;8.80;;
12407;SDS011;6268;48.188;17.134;2023-01-15T04:26:06;10.03;;;8.73;;
12407;SDS011;6268;48.188;17.134;2023-01-15T04:28:35;10.67;;;8.53;;
12407;SDS011;6268;48.188;17.134;2023-01-15T04:31:05;10.00;;;8.90;;
12407;SDS011;6268;48.188;17.134;2023-01-15T04:33:38;9.73;;;8.60;;
12407;SDS011;6268;48.188;17.134;2023-01-15T04:36:08;11.90;;;9.20;;
12407;SDS011;6268;48.188;17.134;2023-01-15T04:38:38;8.90;;;8.00;;
12407;SDS011;6268;48.188;17.134;2023-01-15T04:41:08;8.07;;;7.37;;
12407;SDS011;6268;48.188;17.134;2023-01-15T04:43:56;10.53;;;8.20;;
12407;SDS011;6268;48.188;17.134;2023-01-15T04:46:35;10.17;;;7.90;;
12407;SDS011;6268;48.188;17.134;2023-01-15T04:49:09;9.33;;;8.17;;
12407;SDS011;6268;48.188;17.134;2023-01-15T04:51:40;8.40;;;7.70;;
12407;SDS011;6268;48.188;17.134;2023-01-15T04:54:11;11.07;;;7.83;;
12407;SDS011;6268;48.188;17.134;2023-01-15T04:56:43;9.10;;;8.07;;
12407;SDS011;6268;48.188;17.134;2023-01-15T04:59:14;8.97;;;7.83;;
12407;SDS011;6268;48.188;17.134;2023-01-15T05:01:44;11.03;;;8.27;;
12407;SDS011;6268;48.188;17.134;2023-01-15T05:04:29;9.00;;;7.43;;
12407;SDS011;6268;48.188;17.134;2023-01-15T05:06:59;8.30;;;7.50;;
12407;SDS011;6268;48.188;17.134;2023-01-15T05:09:29;9.70;;;7.40;;
12407;SDS011;6268;48.188;17.134;2023-01-15T05:11:58;7.70;;;6.93;;
12407;SDS011;6268;48.188;17.134;2023-01-15T05:14:28;8.00;;;6.97;;
12407;SDS011;6268;48.188;17.134;2023-01-15T05:16:57;9.30;;;7.40;;
12407;SDS011;6268;48.188;17.134;2023-01-15T05:19:26;8.10;;;7.30;;
12407;SDS011;6268;48.188;17.134;2023-01-15T05:21:56;8.80;;;7.67;;
12407;SDS011;6268;48.188;17.134;2023-01-15T05:24:25;7.30;;;6.60;;
12407;SDS011;6268;48.188;17.134;2023-01-15T05:26:54;9.93;;;7.87;;
12407;SDS011;6268;48.188;17.134;2023-01-15T05:29:23;8.43;;;7.30;;
12407;SDS011;6268;48.188;17.134;2023-01-15T05:31:52;9.37;;;7.27;;
12407;SDS011;6268;48.188;17.134;2023-01-15T05:34:21;9.83;;;7.23;;
12407;SDS011;6268;48.188;17.134;2023-01-15T05:36:50;8.67;;;7.77;;
12407;SDS011;6268;48.188;17.134;2023-01-15T05:39:20;7.60;;;6.90;;
12407;SDS011;6268;48.188;17.134;2023-01-15T05:41:49;8.07;;;7.27;;
12407;SDS011;6268;48.188;17.134;2023-01-15T05:44:20;9.27;;;7.13;;
12407;SDS011;6268;48.188;17.134;2023-01-15T05:46:57;9.27;;;7.27;;
12407;SDS011;6268;48.188;17.134;2023-01-15T05:49:33;8.23;;;7.33;;
12407;SDS011;6268;48.188;17.134;2023-01-15T05:52:03;8.00;;;7.30;;
12407;SDS011;6268;48.188;17.134;2023-01-15T05:54:36;8.50;;;7.60;;
12407;SDS011;6268;48.188;17.134;2023-01-15T05:57:05;7.50;;;6.80;;
12407;SDS011;6268;48.188;17.134;2023-01-15T05:59:37;8.63;;;6.73;;
12407;SDS011;6268;48.188;17.134;2023-01-15T06:02:06;8.73;;;7.50;;
12407;SDS011;6268;48.188;17.134;2023-01-15T06:04:35;8.20;;;6.70;;
12407;SDS011;6268;48.188;17.134;2023-01-15T06:07:04;7.50;;;6.40;;
12407;SDS011;6268;48.188;17.134;2023-01-15T06:09:33;8.03;;;6.40;;
12407;SDS011;6268;48.188;17.134;2023-01-15T06:12:03;7.07;;;6.37;;
12407;SDS011;6268;48.188;17.134;2023-01-15T06:14:33;7.50;;;6.20;;
12407;SDS011;6268;48.188;17.134;2023-01-15T06:17:01;6.73;;;6.03;;
12407;SDS011;6268;48.188;17.134;2023-01-15T06:19:30;7.67;;;6.27;;
12407;SDS011;6268;48.188;17.134;2023-01-15T06:21:59;13.67;;;6.20;;
12407;SDS011;6268;48.188;17.134;2023-01-15T06:24:29;6.90;;;6.20;;
12407;SDS011;6268;48.188;17.134;2023-01-15T06:27:04;7.17;;;6.03;;
12407;SDS011;6268;48.188;17.134;2023-01-15T06:29:33;7.90;;;6.00;;
12407;SDS011;6268;48.188;17.134;2023-01-15T06:32:02;7.40;;;5.70;;
12407;SDS011;6268;48.188;17.134;2023-01-15T06:34:31;6.37;;;5.77;;
12407;SDS011;6268;48.188;17.134;2023-01-15T06:37:00;6.67;;;6.07;;
12407;SDS011;6268;48.188;17.134;2023-01-15T06:39:29;9.60;;;6.70;;
12407;SDS011;6268;48.188;17.134;2023-01-15T06:41:57;6.87;;;6.20;;
12407;SDS011;6268;48.188;17.134;2023-01-15T06:44:45;7.03;;;6.33;;
12407;SDS011;6268;48.188;17.134;2023-01-15T06:47:31;8.43;;;6.57;;
12407;SDS011;6268;48.188;17.134;2023-01-15T06:50:00;6.63;;;5.93;;
12407;SDS011;6268;48.188;17.134;2023-01-15T06:52:29;6.27;;;5.20;;
12407;SDS011;6268;48.188;17.134;2023-01-15T06:54:58;8.23;;;6.37;;
12407;SDS011;6268;48.188;17.134;2023-01-15T06:57:26;6.67;;;6.07;;
12407;SDS011;6268;48.188;17.134;2023-01-15T06:59:56;7.30;;;6.07;;
12407;SDS011;6268;48.188;17.134;2023-01-15T07:02:25;6.77;;;5.83;;
12407;SDS011;6268;48.188;17.134;2023-01-15T07:04:54;7.93;;;6.53;;
12407;SDS011;6268;48.188;17.134;2023-01-15T07:07:23;15.93;;;12.17;;
12407;SDS011;6268;48.188;17.134;2023-01-15T07:09:55;7.73;;;6.80;;
12407;SDS011;6268;48.188;17.134;2023-01-15T07:12:24;11.17;;;8.70;;
12407;SDS011;6268;48.188;17.134;2023-01-15T07:14:53;15.43;;;13.63;;
12407;SDS011;6268;48.188;17.134;2023-01-15T07:17:23;22.03;;;16.07;;
12407;SDS011;6268;48.188;17.134;2023-01-15T07:19:52;10.43;;;7.20;;
12407;SDS011;6268;48.188;17.134;2023-01-15T07:22:20;8.07;;;7.20;;
12407;SDS011;6268;48.188;17.134;2023-01-15T07:24:49;7.40;;;6.70;;
12407;SDS011;6268;48.188;17.134;2023-01-15T07:27:18;7.53;;;6.80;;
12407;SDS011;6268;48.188;17.134;2023-01-15T07:29:47;7.40;;;6.73;;
12407;SDS011;6268;48.188;17.134;2023-01-15T07:32:17;7.60;;;6.80;;
12407;SDS011;6268;48.188;17.134;2023-01-15T07:34:48;8.87;;;7.23;;
12407;SDS011;6268;48.188;17.134;2023-01-15T07:37:16;8.67;;;6.70;;
12407;SDS011;6268;48.188;17.134;2023-01-15T07:39:45;10.53;;;7.47;;
12407;SDS011;6268;48.188;17.134;2023-01-15T07:42:14;22.40;;;16.23;;
12407;SDS011;6268;48.188;17.134;2023-01-15T07:45:00;11.43;;;8.90;;
12407;SDS011;6268;48.188;17.134;2023-01-15T07:47:46;10.40;;;9.07;;
12407;SDS011;6268;48.188;17.134;2023-01-15T07:50:46;14.73;;;9.13;;
12407;SDS011;6268;48.188;17.134;2023-01-15T07:53:16;11.17;;;8.43;;
12407;SDS011;6268;48.188;17.134;2023-01-15T07:55:45;10.10;;;8.43;;
12407;SDS011;6268;48.188;17.134;2023-01-15T07:58:14;13.57;;;8.67;;
12407;SDS011;6268;48.188;17.134;2023-01-15T08:00:43;9.47;;;8.13;;
12407;SDS011;6268;48.188;17.134;2023-01-15T08:03:12;11.57;;;8.00;;
12407;SDS011;6268;48.188;17.134;2023-01-15T08:05:40;9.33;;;7.90;;
12407;SDS011;6268;48.188;17.134;2023-01-15T08:08:14;9.97;;;8.27;;
12407;SDS011;6268;48.188;17.134;2023-01-15T08:10:44;10.03;;;8.97;;
12407;SDS011;6268;48.188;17.134;2023-01-15T08:13:26;9.57;;;8.57;;
12407;SDS011;6268;48.188;17.134;2023-01-15T08:16:13;13.27;;;9.17;;
12407;SDS011;6268;48.188;17.134;2023-01-15T08:18:42;12.63;;;9.07;;
12407;SDS011;6268;48.188;17.134;2023-01-15T08:21:12;15.33;;;12.93;;
12407;SDS011;6268;48.188;17.134;2023-01-15T08:23:44;19.43;;;16.27;;
12407;SDS011;6268;48.188;17.134;2023-01-15T08:26:13;10.70;;;9.10;;
12407;SDS011;6268;48.188;17.134;2023-01-15T08:28:41;12.17;;;9.33;;
12407;SDS011;6268;48.188;17.134;2023-01-15T08:31:10;10.30;;;9.30;;
12407;SDS011;6268;48.188;17.134;2023-01-15T08:33:39;9.93;;;8.90;;
12407;SDS011;6268;48.188;17.134;2023-01-15T08:36:08;10.20;;;9.20;;
12407;SDS011;6268;48.188;17.134;2023-01-15T08:38:37;11.97;;;9.37;;
12407;SDS011;6268;48.188;17.134;2023-01-15T08:41:07;10.33;;;8.73;;
12407;SDS011;6268;48.188;17.134;2023-01-15T08:43:37;13.27;;;9.40;;
12407;SDS011;6268;48.188;17.134;2023-01-15T08:46:08;11.43;;;9.60;;
12407;SDS011;6268;48.188;17.134;2023-01-15T08:48:37;10.57;;;9.53;;
12407;SDS011;6268;48.188;17.134;2023-01-15T08:51:07;12.93;;;10.30;;
12407;SDS011;6268;48.188;17.134;2023-01-15T08:53:37;10.73;;;9.63;;
12407;SDS011;6268;48.188;17.134;2023-01-15T08:56:10;13.53;;;10.43;;
12407;SDS011;6268;48.188;17.134;2023-01-15T08:58:40;12.93;;;10.43;;
12407;SDS011;6268;48.188;17.134;2023-01-15T09:01:09;14.93;;;10.23;;
12407;SDS011;6268;48.188;17.134;2023-01-15T09:03:41;11.70;;;9.80;;
12407;SDS011;6268;48.188;17.134;2023-01-15T09:06:10;11.47;;;10.20;;
12407;SDS011;6268;48.188;17.134;2023-01-15T09:08:40;11.67;;;10.47;;
12407;SDS011;6268;48.188;17.134;2023-01-15T09:11:08;13.33;;;10.77;;
12407;SDS011;6268;48.188;17.134;2023-01-15T09:13:39;13.00;;;10.83;;
12407;SDS011;6268;48.188;17.134;2023-01-15T09:16:09;13.27;;;11.33;;
12407;SDS011;6268;48.188;17.134;2023-01-15T09:18:38;14.87;;;12.03;;
12407;SDS011;6268;48.188;17.134;2023-01-15T09:21:07;14.30;;;11.50;;
12407;SDS011;6268;48.188;17.134;2023-01-15T09:23:36;17.90;;;13.90;;
12407;SDS011;6268;48.188;17.134;2023-01-15T09:26:05;23.67;;;17.73;;
12407;SDS011;6268;48.188;17.134;2023-01-15T09:28:36;16.77;;;12.37;;
12407;SDS011;6268;48.188;17.134;2023-01-15T09:31:05;13.77;;;11.77;;
12407;SDS011;6268;48.188;17.134;2023-01-15T09:33:34;13.50;;;11.03;;
12407;SDS011;6268;48.188;17.134;2023-01-15T09:36:03;12.73;;;11.30;;
12407;SDS011;6268;48.188;17.134;2023-01-15T09:38:33;17.57;;;13.30;;
12407;SDS011;6268;48.188;17.134;2023-01-15T09:41:06;14.07;;;11.27;;
12407;SDS011;6268;48.188;17.134;2023-01-15T09:44:04;14.60;;;11.60;;
12407;SDS011;6268;48.188;17.134;2023-01-15T09:46:49;13.60;;;11.53;;
12407;SDS011;6268;48.188;17.134;2023-01-15T09:49:36;16.80;;;11.83;;
12407;SDS011;6268;48.188;17.134;2023-01-15T09:52:26;16.63;;;12.10;;
12407;SDS011;6268;48.188;17.134;2023-01-15T09:55:14;15.17;;;11.93;;
12407;SDS011;6268;48.188;17.134;2023-01-15T09:57:48;14.97;;;11.97;;
12407;SDS011;6268;48.188;17.134;2023-01-15T10:00:23;17.73;;;12.33;;
12407;SDS011;6268;48.188;17.134;2023-01-15T10:02:56;13.33;;;11.53;;
12407;SDS011;6268;48.188;17.134;2023-01-15T10:05:32;23.23;;;14.93;;
12407;SDS011;6268;48.188;17.134;2023-01-15T10:08:10;50.80;;;32.27;;
12407;SDS011;6268;48.188;17.134;2023-01-15T10:10:47;27.40;;;17.67;;
12407;SDS011;6268;48.188;17.134;2023-01-15T10:13:22;22.40;;;14.80;;
12407;SDS011;6268;48.188;17.134;2023-01-15T10:16:05;22.70;;;14.83;;
12407;SDS011;6268;48.188;17.134;2023-01-15T10:18:35;15.87;;;13.13;;
12407;SDS011;6268;48.188;17.134;2023-01-15T10:21:14;19.07;;;14.20;;
12407;SDS011;6268;48.188;17.134;2023-01-15T10:23:59;23.47;;;17.70;;
12407;SDS011;6268;48.188;17.134;2023-01-15T10:26:34;22.87;;;16.27;;
12407;SDS011;6268;48.188;17.134;2023-01-15T10:29:09;16.37;;;12.90;;
12407;SDS011;6268;48.188;17.134;2023-01-15T10:31:50;13.03;;;11.67;;
12407;SDS011;6268;48.188;17.134;2023-01-15T10:34:25;15.20;;;12.60;;
12407;SDS011;6268;48.188;17.134;2023-01-15T10:37:25;13.67;;;11.63;;
12407;SDS011;6268;48.188;17.134;2023-01-15T10:40:04;13.17;;;11.77;;
12407;SDS011;6268;48.188;17.134;2023-01-15T10:42:57;14.60;;;12.20;;
12407;SDS011;6268;48.188;17.134;2023-01-15T10:45:39;18.23;;;14.03;;
12407;SDS011;6268;48.188;17.134;2023-01-15T10:48:17;15.47;;;13.60;;
12407;SDS011;6268;48.188;17.134;2023-01-15T10:50:55;35.27;;;27.50;;
12407;SDS011;6268;48.188;17.134;2023-01-15T10:53:32;14.73;;;13.17;;
12407;SDS011;6268;48.188;17.134;2023-01-15T10:56:12;15.20;;;12.47;;
12407;SDS011;6268;48.188;17.134;2023-01-15T10:58:56;17.50;;;14.80;;
12407;SDS011;6268;48.188;17.134;2023-01-15T11:01:37;16.77;;;14.23;;
12407;SDS011;6268;48.188;17.134;2023-01-15T11:04:09;15.37;;;12.80;;
12407;SDS011;6268;48.188;17.134;2023-01-15T11:06:40;13.33;;;11.83;;
12407;SDS011;6268;48.188;17.134;2023-01-15T11:09:14;14.50;;;11.83;;
12407;SDS011;6268;48.188;17.134;2023-01-15T11:11:49;13.57;;;11.97;;
12407;SDS011;6268;48.188;17.134;2023-01-15T11:14:41;16.00;;;13.20;;
12407;SDS011;6268;48.188;17.134;2023-01-15T11:17:31;13.40;;;12.00;;
12407;SDS011;6268;48.188;17.134;2023-01-15T11:20:26;12.67;;;11.27;;
12407;SDS011;6268;48.188;17.134;2023-01-15T11:23:05;15.20;;;13.27;;
12407;SDS011;6268;48.188;17.134;2023-01-15T11:25:37;13.87;;;12.10;;
12407;SDS011;6268;48.188;17.134;2023-01-15T11:28:15;15.43;;;13.83;;
12407;SDS011;6268;48.188;17.134;2023-01-15T11:30:51;14.00;;;11.90;;
12407;SDS011;6268;48.188;17.134;2023-01-15T11:33:22;14.87;;;12.67;;
12407;SDS011;6268;48.188;17.134;2023-01-15T11:35:55;15.37;;;13.53;;
12407;SDS011;6268;48.188;17.134;2023-01-15T11:38:26;13.73;;;12.07;;
12407;SDS011;6268;48.188;17.134;2023-01-15T11:40:58;16.63;;;12.30;;
12407;SDS011;6268;48.188;17.134;2023-01-15T11:43:30;15.87;;;12.90;;
12407;SDS011;6268;48.188;17.134;2023-01-15T11:46:24;14.57;;;12.98;;
12407;SDS011;6268;48.188;17.134;2023-01-15T11:49:17;14.87;;;13.37;;
12407;SDS011;6268;48.188;17.134;2023-01-15T11:52:07;12.83;;;11.50;;
12407;SDS011;6268;48.188;17.134;2023-01-15T11:54:41;16.17;;;13.37;;
12407;SDS011;6268;48.188;17.134;2023-01-15T11:57:22;15.57;;;13.20;;
12407;SDS011;6268;48.188;17.134;2023-01-15T11:59:55;14.87;;;13.23;;
12407;SDS011;6268;48.188;17.134;2023-01-15T12:02:28;15.03;;;13.40;;
12407;SDS011;6268;48.188;17.134;2023-01-15T12:05:04;17.67;;;13.73;;
12407;SDS011;6268;48.188;17.134;2023-01-15T12:07:43;14.93;;;13.33;;
12407;SDS011;6268;48.188;17.134;2023-01-15T12:10:18;14.87;;;13.17;;
12407;SDS011;6268;48.188;17.134;2023-01-15T12:13:21;15.53;;;13.53;;
12407;SDS011;6268;48.188;17.134;2023-01-15T12:16:02;14.77;;;13.07;;
12407;SDS011;6268;48.188;17.134;2023-01-15T12:18:51;15.70;;;14.00;;
12407;SDS011;6268;48.188;17.134;2023-01-15T12:27:51;16.13;;;13.73;;
12407;SDS011;6268;48.188;17.134;2023-01-15T12:30:27;17.00;;;15.20;;
12407;SDS011;6268;48.188;17.134;2023-01-15T12:33:18;18.37;;;15.27;;
12407;SDS011;6268;48.188;17.134;2023-01-15T12:35:57;16.00;;;14.30;;
12407;SDS011;6268;48.188;17.134;2023-01-15T12:38:39;19.33;;;15.70;;
12407;SDS011;6268;48.188;17.134;2023-01-15T12:41:20;17.40;;;15.60;;
12407;SDS011;6268;48.188;17.134;2023-01-15T12:44:15;19.40;;;16.57;;
12407;SDS011;6268;48.188;17.134;2023-01-15T12:47:09;23.67;;;18.10;;
12407;SDS011;6268;48.188;17.134;2023-01-15T12:49:46;22.07;;;17.33;;
12407;SDS011;6268;48.188;17.134;2023-01-15T12:52:21;18.60;;;16.63;;
12407;SDS011;6268;48.188;17.134;2023-01-15T12:55:00;22.17;;;17.60;;
12407;SDS011;6268;48.188;17.134;2023-01-15T12:57:42;19.67;;;17.57;;
12407;SDS011;6268;48.188;17.134;2023-01-15T13:00:17;20.87;;;18.27;;
12407;SDS011;6268;48.188;17.134;2023-01-15T13:02:56;24.20;;;18.10;;
12407;SDS011;6268;48.188;17.134;2023-01-15T13:05:42;21.17;;;18.63;;
12407;SDS011;6268;48.188;17.134;2023-01-15T13:08:20;23.50;;;18.37;;
12407;SDS011;6268;48.188;17.134;2023-01-15T13:10:55;23.40;;;18.53;;
12407;SDS011;6268;48.188;17.134;2023-01-15T13:13:28;25.13;;;18.97;;
12407;SDS011;6268;48.188;17.134;2023-01-15T13:16:09;23.13;;;19.83;;
12407;SDS011;6268;48.188;17.134;2023-01-15T13:18:48;20.90;;;18.30;;
12407;SDS011;6268;48.188;17.134;2023-01-15T13:21:32;26.63;;;20.40;;
12407;SDS011;6268;48.188;17.134;2023-01-15T13:24:18;35.67;;;26.57;;
12407;SDS011;6268;48.188;17.134;2023-01-15T13:27:14;22.60;;;18.77;;
12407;SDS011;6268;48.188;17.134;2023-01-15T13:30:06;26.50;;;20.47;;
12407;SDS011;6268;48.188;17.134;2023-01-15T13:32:54;24.77;;;19.50;;
12407;SDS011;6268;48.188;17.134;2023-01-15T13:35:32;24.97;;;21.00;;
12407;SDS011;6268;48.188;17.134;2023-01-15T13:38:10;27.33;;;22.03;;
12407;SDS011;6268;48.188;17.134;2023-01-15T13:40:47;27.90;;;22.20;;
12407;SDS011;6268;48.188;17.134;2023-01-15T13:43:25;29.13;;;21.93;;
12407;SDS011;6268;48.188;17.134;2023-01-15T13:46:03;26.30;;;22.23;;
12407;SDS011;6268;48.188;17.134;2023-01-15T13:48:39;26.47;;;21.57;;
12407;SDS011;6268;48.188;17.134;2023-01-15T13:51:21;26.37;;;21.47;;
12407;SDS011;6268;48.188;17.134;2023-01-15T13:53:56;24.60;;;21.87;;
12407;SDS011;6268;48.188;17.134;2023-01-15T13:56:28;30.80;;;22.97;;
12407;SDS011;6268;48.188;17.134;2023-01-15T13:58:59;29.27;;;22.07;;
12407;SDS011;6268;48.188;17.134;2023-01-15T14:01:32;24.67;;;21.07;;
12407;SDS011;6268;48.188;17.134;2023-01-15T14:04:04;25.80;;;21.63;;
12407;SDS011;6268;48.188;17.134;2023-01-15T14:06:42;28.87;;;23.80;;
12407;SDS011;6268;48.188;17.134;2023-01-15T14:09:12;39.10;;;29.33;;
12407;SDS011;6268;48.188;17.134;2023-01-15T14:11:58;32.57;;;25.73;;
12407;SDS011;6268;48.188;17.134;2023-01-15T14:14:49;27.93;;;22.17;;
12407;SDS011;6268;48.188;17.134;2023-01-15T14:21:00;27.50;;;21.07;;
12407;SDS011;6268;48.188;17.134;2023-01-15T14:27:01;22.50;;;19.70;;
12407;SDS011;6268;48.188;17.134;2023-01-15T14:29:44;24.23;;;20.40;;
12407;SDS011;6268;48.188;17.134;2023-01-15T14:32:41;25.00;;;20.73;;
12407;SDS011;6268;48.188;17.134;2023-01-15T14:35:34;24.60;;;20.87;;
12407;SDS011;6268;48.188;17.134;2023-01-15T14:38:07;24.53;;;19.37;;
12407;SDS011;6268;48.188;17.134;2023-01-15T14:40:51;24.33;;;20.53;;
12407;SDS011;6268;48.188;17.134;2023-01-15T14:43:27;23.57;;;18.67;;
12407;SDS011;6268;48.188;17.134;2023-01-15T14:46:07;25.53;;;20.97;;
12407;SDS011;6268;48.188;17.134;2023-01-15T14:48:47;22.77;;;18.60;;
12407;SDS011;6268;48.188;17.134;2023-01-15T14:51:20;24.17;;;19.17;;
12407;SDS011;6268;48.188;17.134;2023-01-15T14:53:54;20.73;;;18.53;;
12407;SDS011;6268;48.188;17.134;2023-01-15T14:56:30;22.77;;;18.73;;
12407;SDS011;6268;48.188;17.134;2023-01-15T14:59:05;21.40;;;18.97;;
12407;SDS011;6268;48.188;17.134;2023-01-15T15:01:42;24.00;;;20.43;;
12407;SDS011;6268;48.188;17.134;2023-01-15T15:04:21;23.30;;;18.57;;
12407;SDS011;6268;48.188;17.134;2023-01-15T15:07:02;23.67;;;18.57;;
12407;SDS011;6268;48.188;17.134;2023-01-15T15:09:39;22.97;;;18.63;;
12407;SDS011;6268;48.188;17.134;2023-01-15T15:12:24;22.80;;;19.60;;
12407;SDS011;6268;48.188;17.134;2023-01-15T15:15:06;21.73;;;18.13;;
12407;SDS011;6268;48.188;17.134;2023-01-15T15:17:56;23.40;;;19.47;;
12407;SDS011;6268;48.188;17.134;2023-01-15T15:20:36;22.37;;;19.47;;
12407;SDS011;6268;48.188;17.134;2023-01-15T15:23:21;23.38;;;18.73;;
12407;SDS011;6268;48.188;17.134;2023-01-15T15:25:57;27.33;;;23.10;;
12407;SDS011;6268;48.188;17.134;2023-01-15T15:28:29;23.00;;;19.83;;
12407;SDS011;6268;48.188;17.134;2023-01-15T15:30:58;21.93;;;19.53;;
12407;SDS011;6268;48.188;17.134;2023-01-15T15:33:30;25.53;;;20.47;;
12407;SDS011;6268;48.188;17.134;2023-01-15T15:36:06;25.40;;;20.93;;